Time;durP1;ratioP1;P1;durP2;ratioP2;P2;SDS_P1;SDS_P2;PMS_P1;PMS_P2;Temp;Humidity;BMP_temperature;BMP_pressure;BME280_temperature;BME280_humidity;BME280_pressure;Samples;Min_cycle;Max_cycle;Signal;HPM_P1;HPM_P2
2022/08/13 00:01:25;;;;;;;8.50;5.25;;;27.60;99.90;;;;;;4205621;28;20091;-67
2022/08/13 00:03:36;;;;;;;7.82;4.93;;;27.70;99.90;;;;;;4205935;28;20052;-67
2022/08/13 00:06:05;;;;;;;13.93;4.78;;;27.70;99.90;;;;;;4206614;28;20542;-66
2022/08/13 00:08:14;;;;;;;10.73;4.60;;;27.70;99.90;;;;;;4206515;28;20136;-67
2022/08/13 00:10:28;;;;;;;7.60;4.72;;;27.70;99.90;;;;;;4206548;28;20725;-66
2022/08/13 00:14:54;;;;;;;7.22;4.40;;;27.70;99.90;;;;;;4184865;28;20450;-68
2022/08/13 00:16:58;;;;;;;10.25;4.80;;;27.80;99.90;;;;;;4203774;28;20047;-66
2022/08/13 00:19:03;;;;;;;9.65;5.20;;;27.80;99.90;;;;;;4206331;28;20052;-66
2022/08/13 00:21:09;;;;;;;8.40;4.43;;;27.80;99.90;;;;;;4207186;28;20410;-66
2022/08/13 00:23:18;;;;;;;10.25;4.97;;;27.90;99.90;;;;;;4206029;28;20057;-66
2022/08/13 00:25:25;;;;;;;11.68;4.88;;;27.90;99.90;;;;;;4207433;28;20046;-66
2022/08/13 00:27:47;;;;;;;9.23;4.70;;;27.90;99.90;;;;;;4207411;28;20044;-66
2022/08/13 00:30:07;;;;;;;10.32;4.80;;;27.90;99.90;;;;;;4207067;28;20089;-66
2022/08/13 00:32:14;;;;;;;8.88;4.68;;;28.00;99.90;;;;;;4208778;28;20440;-65
2022/08/13 00:34:20;;;;;;;8.20;4.40;;;28.00;99.90;;;;;;4207782;28;20127;-66
2022/08/13 00:36:31;;;;;;;9.52;4.28;;;28.00;99.90;;;;;;4206223;28;20036;-67
2022/08/13 00:38:46;;;;;;;7.90;4.97;;;28.10;99.90;;;;;;4236814;27;20046;-67
2022/08/13 00:40:58;;;;;;;7.63;4.07;;;28.00;99.90;;;;;;4207291;28;20487;-66
2022/08/13 00:43:05;;;;;;;11.13;4.53;;;28.10;99.90;;;;;;4170648;28;20053;-66
2022/08/13 00:45:17;;;;;;;6.85;4.30;;;28.10;99.90;;;;;;4204190;28;20070;-65
2022/08/13 00:49:54;;;;;;;8.70;4.68;;;28.20;99.90;;;;;;4205187;28;20055;-65
2022/08/13 00:52:07;;;;;;;12.10;5.80;;;28.30;99.90;;;;;;4206503;28;20040;-66
2022/08/13 00:54:17;;;;;;;11.70;6.40;;;28.30;99.90;;;;;;4206591;28;20493;-66
2022/08/13 00:56:26;;;;;;;13.73;5.68;;;28.40;99.90;;;;;;4186826;28;20052;-65
2022/08/13 00:58:33;;;;;;;13.25;6.20;;;28.50;99.90;;;;;;4205540;28;20039;-65
2022/08/13 01:00:40;;;;;;;9.30;5.22;;;28.40;99.90;;;;;;4207399;28;20043;-66
2022/08/13 01:02:49;;;;;;;8.18;5.18;;;28.50;99.90;;;;;;4209347;28;20136;-66
2022/08/13 01:05:00;;;;;;;10.15;5.82;;;28.60;99.90;;;;;;4208640;28;20048;-66
2022/08/13 01:07:05;;;;;;;11.35;5.97;;;28.60;99.90;;;;;;4209101;28;20044;-66
2022/08/13 01:09:20;;;;;;;11.30;5.57;;;28.60;99.90;;;;;;4224661;28;20051;-66
2022/08/13 01:11:45;;;;;;;12.05;5.18;;;28.60;99.90;;;;;;4208854;28;20452;-66
2022/08/13 01:13:51;;;;;;;9.48;4.97;;;28.70;99.90;;;;;;4208933;28;20709;-65
2022/08/13 01:15:58;;;;;;;9.15;4.82;;;28.70;99.90;;;;;;4208680;28;20054;-66
2022/08/13 01:18:04;;;;;;;9.63;4.75;;;28.80;99.90;;;;;;4208461;28;20036;-66
2022/08/13 01:20:20;;;;;;;10.10;4.90;;;28.80;99.90;;;;;;4208795;28;20044;-66
2022/08/13 01:22:36;;;;;;;13.10;4.85;;;28.80;99.90;;;;;;4208298;28;20398;-66
2022/08/13 01:24:41;;;;;;;6.72;4.20;;;28.80;99.90;;;;;;4209119;28;20135;-66
2022/08/13 01:26:46;;;;;;;7.15;4.47;;;28.90;99.90;;;;;;4208094;28;20052;-66
2022/08/13 01:28:53;;;;;;;10.77;4.80;;;28.90;99.90;;;;;;4207594;28;20044;-66
2022/08/13 01:31:04;;;;;;;7.28;4.70;;;29.00;99.90;;;;;;4208968;28;20044;-66
2022/08/13 01:33:20;;;;;;;12.15;4.43;;;29.00;99.90;;;;;;4209615;28;20062;-65
2022/08/13 01:35:28;;;;;;;8.20;4.07;;;29.00;99.90;;;;;;4208713;28;20138;-66
2022/08/13 01:37:34;;;;;;;8.77;4.80;;;29.00;99.90;;;;;;4208543;28;20044;-66
2022/08/13 01:39:44;;;;;;;10.35;4.38;;;29.00;99.90;;;;;;4206812;28;20047;-65
2022/08/13 01:41:56;;;;;;;10.05;4.70;;;29.00;99.90;;;;;;4208736;28;20040;-65
2022/08/13 01:44:05;;;;;;;5.90;3.85;;;29.10;99.90;;;;;;4208682;28;20036;-66
2022/08/13 01:46:21;;;;;;;10.52;4.68;;;29.10;99.90;;;;;;4209311;28;20036;-65
2022/08/13 01:51:03;;;;;;;7.78;4.05;;;29.10;99.90;;;;;;4211122;28;20508;-66
2022/08/13 01:53:23;;;;;;;9.65;4.50;;;29.20;99.90;;;;;;4211626;28;20067;-65
2022/08/13 01:55:39;;;;;;;10.27;4.20;;;29.20;99.90;;;;;;4212113;28;20597;-66
2022/08/13 01:58:18;;;;;;;7.47;4.03;;;29.30;99.90;;;;;;4209293;28;20044;-66
2022/08/13 02:00:35;;;;;;;5.70;3.63;;;29.20;99.90;;;;;;4211368;28;20070;-66
2022/08/13 02:02:44;;;;;;;7.72;3.78;;;29.30;99.90;;;;;;4210523;28;20046;-66
2022/08/13 02:04:55;;;;;;;6.78;3.80;;;29.30;99.90;;;;;;4212624;28;20040;-66
2022/08/13 02:07:08;;;;;;;8.35;4.03;;;29.40;99.90;;;;;;4210738;28;20119;-65
2022/08/13 02:09:19;;;;;;;7.25;3.70;;;29.40;99.90;;;;;;4210573;28;20040;-66
2022/08/13 02:11:43;;;;;;;6.32;3.75;;;29.50;99.90;;;;;;4208139;28;20523;-66
2022/08/13 02:13:52;;;;;;;10.48;3.90;;;29.60;99.90;;;;;;4210251;28;20063;-66
2022/08/13 02:16:02;;;;;;;7.13;3.90;;;29.70;99.90;;;;;;4210469;28;20059;-65
2022/08/13 02:18:19;;;;;;;8.05;3.97;;;29.70;99.90;;;;;;4210715;28;20036;-66
2022/08/13 02:20:26;;;;;;;6.70;4.15;;;29.70;99.90;;;;;;4210152;28;20566;-66
2022/08/13 02:22:35;;;;;;;7.85;4.15;;;29.70;99.90;;;;;;4176010;28;20041;-66
2022/08/13 02:24:47;;;;;;;7.13;4.00;;;29.80;99.90;;;;;;4210834;28;20082;-66
2022/08/13 02:26:55;;;;;;;9.27;4.10;;;29.70;99.90;;;;;;4210204;28;20122;-65
2022/08/13 02:29:04;;;;;;;7.25;3.97;;;29.80;99.90;;;;;;4210670;28;20052;-66
2022/08/13 02:31:08;;;;;;;8.48;4.72;;;29.90;99.90;;;;;;4208454;28;20505;-66
2022/08/13 02:33:37;;;;;;;9.98;4.10;;;29.90;99.90;;;;;;4208595;28;20052;-66
2022/08/13 02:35:45;;;;;;;12.88;4.40;;;30.00;99.90;;;;;;4210870;28;20102;-66
2022/08/13 02:37:50;;;;;;;5.80;3.90;;;30.10;99.90;;;;;;4210456;28;20040;-65
2022/08/13 02:40:04;;;;;;;8.43;4.10;;;30.20;99.90;;;;;;4212486;28;20756;-66
2022/08/13 02:42:10;;;;;;;12.75;4.82;;;30.30;99.90;;;;;;4211093;28;20070;-66
2022/08/13 02:44:25;;;;;;;7.43;4.67;;;30.30;99.90;;;;;;4211109;28;20055;-66
2022/08/13 02:46:40;;;;;;;7.95;3.95;;;30.30;99.90;;;;;;4211296;28;20470;-66
2022/08/13 02:48:46;;;;;;;12.13;4.22;;;30.30;99.90;;;;;;4209920;28;20490;-67
2022/08/13 02:50:55;;;;;;;9.77;4.25;;;30.30;99.90;;;;;;4210669;28;20585;-67
2022/08/13 02:52:59;;;;;;;6.25;4.07;;;30.40;99.90;;;;;;4193282;28;20046;-66
2022/08/13 02:55:07;;;;;;;11.13;4.15;;;30.40;99.90;;;;;;4210788;28;20097;-66
2022/08/13 02:57:17;;;;;;;8.10;4.15;;;30.40;99.90;;;;;;4210824;28;20048;-66
2022/08/13 02:59:24;;;;;;;6.97;4.15;;;30.40;99.90;;;;;;4225075;28;20051;-66
2022/08/13 03:01:51;;;;;;;5.57;3.67;;;30.40;99.90;;;;;;4172358;28;20049;-66
2022/08/13 03:03:57;;;;;;;8.30;3.92;;;30.50;99.90;;;;;;4174417;28;20084;-66
2022/08/13 03:06:02;;;;;;;9.13;4.13;;;30.50;99.90;;;;;;4159408;28;20041;-66
2022/08/13 03:08:11;;;;;;;8.35;4.90;;;30.50;99.90;;;;;;4158987;28;20057;-67
2022/08/13 03:10:38;;;;;;;5.93;3.72;;;30.50;99.90;;;;;;4174140;28;20088;-65
2022/08/13 03:12:46;;;;;;;8.27;4.20;;;30.50;99.90;;;;;;4158151;28;20050;-66
2022/08/13 03:14:52;;;;;;;9.95;4.82;;;30.50;99.90;;;;;;4097806;28;20043;-66
2022/08/13 03:16:59;;;;;;;15.27;6.47;;;30.50;99.90;;;;;;4159234;28;20636;-66
2022/08/13 03:19:04;;;;;;;10.02;5.45;;;30.60;99.90;;;;;;4174579;28;20033;-66
2022/08/13 03:21:16;;;;;;;18.98;7.97;;;30.60;99.90;;;;;;4175241;28;20047;-66
2022/08/13 03:23:33;;;;;;;16.75;7.88;;;30.70;99.90;;;;;;4174599;28;20041;-66
2022/08/13 03:25:46;;;;;;;10.38;6.13;;;30.70;99.90;;;;;;4159082;28;20122;-66
2022/08/13 03:27:51;;;;;;;12.00;6.43;;;30.80;99.90;;;;;;4175718;28;20216;-66
2022/08/13 03:29:59;;;;;;;19.33;10.48;;;30.80;99.90;;;;;;4159016;28;20061;-67
2022/08/13 03:32:13;;;;;;;11.15;6.00;;;30.90;99.90;;;;;;4174851;28;20048;-66
2022/08/13 03:34:20;;;;;;;11.40;5.75;;;30.90;99.90;;;;;;4173772;28;20114;-66
2022/08/13 03:36:30;;;;;;;10.57;5.30;;;31.00;99.90;;;;;;4159066;28;20072;-68
2022/08/13 03:38:36;;;;;;;12.80;4.88;;;31.00;99.90;;;;;;4143469;28;20512;-66
2022/08/13 03:43:08;;;;;;;9.20;3.92;;;31.10;99.90;;;;;;4210055;28;20031;-66
2022/08/13 03:45:19;;;;;;;9.00;4.45;;;31.10;99.90;;;;;;4209309;28;20050;-66
2022/08/13 03:47:26;;;;;;;8.20;3.90;;;31.10;99.90;;;;;;4210584;28;20493;-65
2022/08/13 03:49:36;;;;;;;9.48;3.85;;;31.00;99.90;;;;;;4211943;28;20054;-65
2022/08/13 03:51:40;;;;;;;8.40;3.92;;;31.00;99.90;;;;;;4209011;28;20063;-65
2022/08/13 03:53:53;;;;;;;7.53;4.35;;;31.00;99.90;;;;;;4209841;28;20052;-66
2022/08/13 03:56:01;;;;;;;10.23;4.15;;;31.00;99.90;;;;;;4208972;28;20070;-66
2022/08/13 03:58:06;;;;;;;8.73;4.00;;;31.10;99.90;;;;;;4210791;28;20066;-64
2022/08/13 04:00:16;;;;;;;7.53;3.03;;;31.10;99.90;;;;;;4209891;28;20036;-65
2022/08/13 04:02:21;;;;;;;10.38;4.20;;;31.20;99.90;;;;;;4209989;28;20135;-65
2022/08/13 04:04:26;;;;;;;7.38;2.90;;;31.20;99.90;;;;;;4207058;28;20113;-66
2022/08/13 04:06:38;;;;;;;7.47;3.43;;;31.30;99.90;;;;;;4210386;28;20044;-66
2022/08/13 04:08:52;;;;;;;9.60;3.83;;;31.40;99.90;;;;;;4209702;28;20554;-66
2022/08/13 04:10:57;;;;;;;6.50;2.83;;;31.50;99.80;;;;;;4208657;28;20069;-66
2022/08/13 04:13:12;;;;;;;8.27;3.80;;;31.50;99.60;;;;;;4209466;28;20079;-66
2022/08/13 04:15:42;;;;;;;5.13;3.03;;;31.60;99.70;;;;;;4209087;28;20037;-65
2022/08/13 04:17:46;;;;;;;7.35;3.28;;;31.60;99.80;;;;;;4203362;28;20097;-65
2022/08/13 04:19:51;;;;;;;8.85;3.28;;;31.60;99.70;;;;;;4209006;28;20051;-65
2022/08/13 04:21:58;;;;;;;7.15;3.15;;;31.50;99.60;;;;;;4209802;28;20445;-66
2022/08/13 04:24:03;;;;;;;8.18;2.63;;;31.50;99.40;;;;;;4209458;28;20071;-66
2022/08/13 04:26:15;;;;;;;7.70;2.70;;;31.50;99.20;;;;;;4209535;28;20046;-66
2022/08/13 04:28:41;;;;;;;5.53;2.70;;;31.50;99.10;;;;;;4209882;28;20048;-65
2022/08/13 04:30:51;;;;;;;5.85;2.50;;;31.60;99.40;;;;;;4208144;28;20113;-66
2022/08/13 04:32:59;;;;;;;6.50;2.30;;;31.60;99.40;;;;;;4209963;28;20055;-66
2022/08/13 04:35:26;;;;;;;5.00;2.00;;;31.70;98.70;;;;;;4209457;28;20069;-66
2022/08/13 04:37:44;;;;;;;5.40;2.10;;;31.90;97.40;;;;;;4209628;28;20036;-66
2022/08/13 04:40:00;;;;;;;7.07;2.10;;;31.90;96.90;;;;;;4209502;28;20036;-66
2022/08/13 04:42:16;;;;;;;9.35;2.13;;;32.00;96.60;;;;;;4210185;28;20064;-66
2022/08/13 04:44:35;;;;;;;5.72;2.00;;;32.00;96.40;;;;;;4208364;28;20032;-66
2022/08/13 04:46:40;;;;;;;6.55;2.40;;;32.10;96.50;;;;;;4209656;28;20090;-67
2022/08/13 04:48:48;;;;;;;6.15;2.05;;;32.10;96.50;;;;;;4209855;28;20048;-66
2022/08/13 04:50:53;;;;;;;8.18;2.10;;;32.30;96.40;;;;;;4208636;28;20040;-66
2022/08/13 04:53:00;;;;;;;5.22;1.70;;;32.40;95.80;;;;;;4209769;28;20044;-66
2022/08/13 04:55:13;;;;;;;5.68;1.65;;;32.50;95.50;;;;;;4208941;28;20040;-66
2022/08/13 04:57:18;;;;;;;8.18;2.30;;;32.50;95.40;;;;;;4209686;28;20036;-66
2022/08/13 04:59:27;;;;;;;6.40;2.03;;;32.30;95.60;;;;;;4209536;28;20044;-65
2022/08/13 05:01:36;;;;;;;5.72;2.28;;;32.20;96.10;;;;;;4209239;28;20051;-66
2022/08/13 05:04:02;;;;;;;6.03;2.30;;;32.10;96.40;;;;;;4208258;28;20036;-66
2022/08/13 05:06:27;;;;;;;16.63;9.32;;;32.10;96.40;;;;;;4209025;28;20047;-66
2022/08/13 05:08:33;;;;;;;49.97;31.50;;;32.00;96.30;;;;;;4208455;28;20040;-66
2022/08/13 05:10:42;;;;;;;28.85;20.20;;;31.90;96.50;;;;;;4209368;28;20658;-66
2022/08/13 05:12:52;;;;;;;18.67;10.75;;;32.00;96.50;;;;;;4173035;28;20079;-66
2022/08/13 05:14:57;;;;;;;10.68;5.15;;;32.00;96.30;;;;;;4208882;28;20043;-66
2022/08/13 05:17:03;;;;;;;9.98;3.13;;;32.20;96.50;;;;;;4209662;28;20771;-65
2022/08/13 05:19:12;;;;;;;10.02;2.75;;;32.30;96.20;;;;;;4208519;28;20032;-66
2022/08/13 05:21:17;;;;;;;7.07;2.55;;;32.40;95.60;;;;;;4209668;28;20469;-66
2022/08/13 05:23:24;;;;;;;7.70;1.88;;;32.50;94.90;;;;;;4209664;28;20044;-66
2022/08/13 05:25:49;;;;;;;9.88;2.30;;;32.50;94.70;;;;;;4207097;28;20131;-66
2022/08/13 05:28:17;;;;;;;7.97;2.10;;;32.60;95.20;;;;;;4208532;28;20043;-66
2022/08/13 05:30:38;;;;;;;4.65;1.80;;;32.60;95.10;;;;;;4209794;28;20051;-66
2022/08/13 05:32:45;;;;;;;5.78;2.10;;;32.70;94.80;;;;;;4207504;28;20058;-65
2022/08/13 05:34:54;;;;;;;7.00;2.47;;;32.70;94.60;;;;;;4206674;28;20109;-66
2022/08/13 05:37:00;;;;;;;7.47;2.33;;;32.60;94.30;;;;;;4208921;28;20075;-66
2022/08/13 05:39:25;;;;;;;8.40;2.38;;;32.60;94.80;;;;;;4207161;28;20048;-65
2022/08/13 05:41:32;;;;;;;7.32;2.42;;;32.70;94.70;;;;;;4209334;28;20047;-66
2022/08/13 05:43:57;;;;;;;6.55;1.73;;;32.80;94.90;;;;;;4208627;28;20047;-65
2022/08/13 05:46:04;;;;;;;6.43;2.70;;;32.80;94.50;;;;;;4208714;28;20131;-65
2022/08/13 05:48:10;;;;;;;10.70;2.15;;;32.80;94.30;;;;;;4208689;28;20036;-65
2022/08/13 05:50:17;;;;;;;5.50;1.90;;;33.00;95.00;;;;;;4208604;28;20052;-66
2022/08/13 05:52:24;;;;;;;7.18;2.38;;;33.00;95.00;;;;;;4208609;28;20097;-66
2022/08/13 05:54:42;;;;;;;5.15;1.80;;;33.00;94.60;;;;;;4208729;28;20040;-67
2022/08/13 05:57:07;;;;;;;4.97;1.63;;;33.10;94.90;;;;;;4208441;28;20693;-67
2022/08/13 06:03:24;;;;;;;7.85;1.70;;;33.10;95.00;;;;;;4208224;28;20047;-66
2022/08/13 06:04:12;;;;;;;5.15;1.92;;;33.10;94.70;;;;;;4208859;28;20072;-67
2022/08/13 06:06:37;;;;;;;6.28;2.38;;;33.20;94.90;;;;;;4208933;28;20481;-66
2022/08/13 06:08:44;;;;;;;7.68;1.92;;;33.20;94.80;;;;;;4208739;28;20074;-66
2022/08/13 06:10:50;;;;;;;7.43;1.90;;;33.40;94.60;;;;;;4208959;28;20048;-66
2022/08/13 06:12:56;;;;;;;9.68;2.08;;;33.50;94.00;;;;;;4208660;28;20456;-67
2022/08/13 06:15:06;;;;;;;4.93;1.63;;;33.60;93.50;;;;;;4208794;28;20494;-66
2022/08/13 06:17:12;;;;;;;4.82;2.03;;;33.70;93.30;;;;;;4207061;28;20056;-67
2022/08/13 06:19:24;;;;;;;7.95;1.80;;;33.80;93.00;;;;;;4238702;28;20043;-67
2022/08/13 06:21:30;;;;;;;8.48;1.90;;;33.60;92.30;;;;;;4206451;28;20666;-66
2022/08/13 06:23:56;;;;;;;6.47;1.70;;;33.50;92.20;;;;;;4208538;28;20082;-67
2022/08/13 06:26:05;;;;;;;4.80;1.60;;;33.50;92.60;;;;;;4207000;28;20052;-65
2022/08/13 06:28:19;;;;;;;6.22;1.77;;;33.70;92.50;;;;;;4207595;28;20040;-65
2022/08/13 06:30:28;;;;;;;5.65;1.75;;;33.80;92.70;;;;;;4208666;28;20036;-65
2022/08/13 06:32:35;;;;;;;4.78;1.98;;;33.80;92.40;;;;;;4208204;28;20040;-66
2022/08/13 06:35:00;;;;;;;6.47;1.80;;;33.80;91.80;;;;;;4208474;28;20097;-67
2022/08/13 06:37:05;;;;;;;4.97;1.80;;;33.70;92.50;;;;;;4207549;28;20558;-66
2022/08/13 06:39:12;;;;;;;4.35;1.55;;;33.80;92.40;;;;;;4190657;28;20052;-66
2022/08/13 06:41:21;;;;;;;9.57;1.90;;;33.90;92.60;;;;;;4211279;28;20064;-67
2022/08/13 06:43:43;;;;;;;5.32;2.10;;;34.00;92.40;;;;;;4225851;28;20036;-66
2022/08/13 06:46:05;;;;;;;7.95;1.90;;;34.10;92.60;;;;;;4210081;28;20056;-67
2022/08/13 06:48:12;;;;;;;4.40;1.80;;;34.20;92.80;;;;;;4211051;28;20048;-66
2022/08/13 06:50:19;;;;;;;4.35;1.75;;;34.00;92.50;;;;;;4209682;28;20040;-66
2022/08/13 06:52:27;;;;;;;7.40;2.00;;;34.00;92.20;;;;;;4210658;28;20062;-66
2022/08/13 06:54:33;;;;;;;9.27;2.00;;;34.10;92.40;;;;;;4209354;28;20143;-65
2022/08/13 06:56:42;;;;;;;6.47;1.95;;;34.30;92.40;;;;;;4211619;28;20040;-66
2022/08/13 06:59:09;;;;;;;7.00;1.90;;;34.30;91.60;;;;;;4192104;28;20427;-66
2022/08/13 07:01:22;;;;;;;8.85;2.20;;;34.10;91.00;;;;;;4190706;28;20541;-66
2022/08/13 07:03:28;;;;;;;4.25;1.70;;;34.10;91.00;;;;;;4192372;28;20124;-66
2022/08/13 07:05:45;;;;;;;4.07;1.52;;;34.30;91.00;;;;;;4190148;28;20703;-67
2022/08/13 07:08:02;;;;;;;6.40;1.73;;;34.40;91.20;;;;;;4189280;28;20473;-67
2022/08/13 07:10:10;;;;;;;7.57;1.70;;;34.40;91.00;;;;;;4190429;28;20083;-67
2022/08/13 07:12:15;;;;;;;6.43;1.75;;;34.40;90.60;;;;;;4190449;28;20092;-67
2022/08/13 07:14:20;;;;;;;5.07;2.20;;;34.30;91.10;;;;;;4190609;28;20052;-67
2022/08/13 07:16:30;;;;;;;7.40;2.15;;;34.40;91.20;;;;;;4192602;28;20105;-66
2022/08/13 07:18:36;;;;;;;6.45;1.85;;;34.30;91.40;;;;;;4191439;28;20044;-66
2022/08/13 07:20:41;;;;;;;5.35;1.88;;;34.20;92.00;;;;;;4191261;28;20123;-67
2022/08/13 07:22:45;;;;;;;4.45;1.70;;;34.00;92.40;;;;;;4158547;28;20127;-67
2022/08/13 07:25:10;;;;;;;6.97;2.35;;;34.30;92.50;;;;;;4191155;28;20044;-67
2022/08/13 07:27:17;;;;;;;7.53;1.98;;;34.20;92.40;;;;;;4191509;28;20040;-67
2022/08/13 07:29:23;;;;;;;6.90;2.45;;;34.20;92.20;;;;;;4191742;28;20071;-66
2022/08/13 07:31:38;;;;;;;5.03;2.05;;;34.30;92.10;;;;;;4191993;28;20037;-67
2022/08/13 07:34:07;;;;;;;5.82;2.05;;;34.20;92.30;;;;;;4191592;28;20055;-67
2022/08/13 07:36:15;;;;;;;6.60;1.63;;;34.00;92.30;;;;;;4179909;28;20047;-67
2022/08/13 07:38:25;;;;;;;7.82;1.98;;;34.00;92.50;;;;;;4211232;28;20520;-67
2022/08/13 07:40:34;;;;;;;6.93;1.83;;;34.00;92.40;;;;;;4211322;28;20131;-67
2022/08/13 07:42:41;;;;;;;5.07;1.70;;;34.00;92.40;;;;;;4210558;28;20043;-67
2022/08/13 07:44:52;;;;;;;7.65;1.88;;;34.00;92.50;;;;;;4210335;28;20043;-67
2022/08/13 07:47:20;;;;;;;5.53;2.05;;;34.00;92.80;;;;;;4211155;28;20123;-67
2022/08/13 07:49:27;;;;;;;5.82;1.80;;;33.90;92.60;;;;;;4192465;28;20033;-67
2022/08/13 07:51:48;;;;;;;6.45;1.83;;;33.80;92.80;;;;;;4209614;28;20040;-67
2022/08/13 07:53:56;;;;;;;8.98;1.90;;;33.90;92.90;;;;;;4207484;28;20043;-67
2022/08/13 07:56:02;;;;;;;5.65;1.80;;;34.00;92.80;;;;;;4210514;28;20620;-67
2022/08/13 07:58:28;;;;;;;7.45;1.70;;;34.00;92.80;;;;;;4209969;28;20059;-67
2022/08/13 08:00:35;;;;;;;6.78;1.77;;;34.00;92.70;;;;;;4210997;28;20048;-67
2022/08/13 08:02:40;;;;;;;10.93;1.90;;;33.80;92.80;;;;;;4209429;28;20052;-67
2022/08/13 08:04:53;;;;;;;6.85;1.80;;;33.70;92.70;;;;;;4206889;28;20051;-67
2022/08/13 08:07:01;;;;;;;7.43;1.83;;;33.70;92.80;;;;;;4208857;28;20028;-67
2022/08/13 08:09:10;;;;;;;5.75;1.42;;;33.70;92.90;;;;;;4209163;28;20118;-67
2022/08/13 08:13:43;;;;;;;7.60;1.98;;;33.60;93.30;;;;;;4206554;28;20101;-67
2022/08/13 08:15:50;;;;;;;6.80;2.15;;;33.70;93.10;;;;;;4206089;28;20880;-66
2022/08/13 08:18:07;;;;;;;5.88;1.80;;;33.70;92.90;;;;;;4207950;28;20101;-67
2022/08/13 08:20:23;;;;;;;4.57;2.00;;;33.60;93.00;;;;;;4206876;28;20067;-66
2022/08/13 08:22:44;;;;;;;7.13;1.60;;;33.60;93.20;;;;;;4206699;28;20047;-66
2022/08/13 08:24:50;;;;;;;8.95;2.33;;;33.60;92.70;;;;;;4207274;28;20117;-65
2022/08/13 08:26:58;;;;;;;6.15;1.70;;;33.60;93.00;;;;;;4204590;28;20755;-66
2022/08/13 08:29:09;;;;;;;9.32;2.28;;;33.60;93.00;;;;;;4206438;28;20063;-66
2022/08/13 08:31:23;;;;;;;7.22;1.85;;;33.60;92.70;;;;;;4206880;28;20052;-67
2022/08/13 08:33:49;;;;;;;8.35;1.80;;;33.70;92.30;;;;;;4206535;28;20156;-65
2022/08/13 08:35:58;;;;;;;6.78;2.10;;;33.70;92.20;;;;;;4207238;28;20052;-67
2022/08/13 08:43:04;;;;;;;8.35;2.25;;;33.60;92.30;;;;;;4206343;28;20806;-66
2022/08/13 08:45:24;;;;;;;11.40;2.75;;;33.60;92.20;;;;;;4207147;28;20044;-67
2022/08/13 08:47:52;;;;;;;7.40;2.25;;;33.70;91.90;;;;;;4206352;28;20055;-66
2022/08/13 08:49:58;;;;;;;6.40;2.00;;;33.70;92.00;;;;;;4207155;28;20040;-66
2022/08/13 08:52:10;;;;;;;7.37;1.93;;;33.70;92.00;;;;;;4208826;28;20043;-66
2022/08/13 08:54:14;;;;;;;7.85;2.13;;;33.70;91.90;;;;;;4208400;28;20046;-66
2022/08/13 08:56:34;;;;;;;9.35;1.92;;;33.60;91.90;;;;;;4208183;28;20276;-67
2022/08/13 08:58:45;;;;;;;9.88;2.20;;;33.60;91.90;;;;;;4206758;28;20211;-66
2022/08/13 09:00:50;;;;;;;8.35;2.35;;;33.60;92.20;;;;;;4207878;28;20039;-67
2022/08/13 09:03:01;;;;;;;4.97;1.60;;;33.60;92.20;;;;;;4206335;28;20058;-67
2022/08/13 09:05:13;;;;;;;9.15;2.05;;;33.60;92.10;;;;;;4207887;28;20032;-68
2022/08/13 09:07:23;;;;;;;6.57;2.00;;;33.70;91.90;;;;;;4206114;28;20036;-65
2022/08/13 09:09:27;;;;;;;6.63;2.00;;;33.70;92.00;;;;;;4207507;28;20071;-66
2022/08/13 09:11:36;;;;;;;7.60;3.38;;;33.50;92.10;;;;;;4208209;28;20048;-65
2022/08/13 09:13:55;;;;;;;8.02;4.35;;;33.40;92.30;;;;;;4208248;28;20131;-66
2022/08/13 09:16:01;;;;;;;6.28;3.20;;;33.40;92.60;;;;;;4207547;28;20085;-66
2022/08/13 09:18:07;;;;;;;7.10;2.97;;;33.40;92.80;;;;;;4208511;28;20101;-66
2022/08/13 09:20:23;;;;;;;7.95;2.60;;;33.30;93.10;;;;;;4207984;28;20039;-66
2022/08/13 09:22:29;;;;;;;6.82;2.75;;;33.30;93.10;;;;;;4208300;28;20135;-65
2022/08/13 09:24:37;;;;;;;6.25;2.33;;;33.20;93.20;;;;;;4208083;28;20043;-66
2022/08/13 09:26:45;;;;;;;7.78;2.53;;;33.20;93.20;;;;;;4207022;28;20127;-67
2022/08/13 09:29:02;;;;;;;12.18;2.35;;;33.20;93.30;;;;;;4207402;28;20063;-67
2022/08/13 09:31:19;;;;;;;9.63;2.80;;;33.10;93.50;;;;;;4207218;28;20043;-66
2022/08/13 09:33:31;;;;;;;8.20;3.05;;;33.10;93.60;;;;;;4208442;28;20043;-67
2022/08/13 09:35:55;;;;;;;10.13;3.10;;;33.10;93.70;;;;;;4206517;28;20055;-67
2022/08/13 09:38:04;;;;;;;15.48;6.43;;;33.10;94.00;;;;;;4207566;28;20040;-66
2022/08/13 09:40:13;;;;;;;18.15;11.25;;;33.00;94.10;;;;;;4207838;28;20159;-66
2022/08/13 09:42:37;;;;;;;24.17;12.63;;;33.00;94.10;;;;;;4207135;28;20562;-66
2022/08/13 09:44:43;;;;;;;14.95;8.30;;;32.90;94.10;;;;;;4206733;28;20081;-66
2022/08/13 09:46:51;;;;;;;16.55;8.30;;;32.90;94.10;;;;;;4209454;28;20050;-66
2022/08/13 09:48:56;;;;;;;15.63;8.98;;;32.90;94.30;;;;;;4209663;28;20721;-65
2022/08/13 09:51:04;;;;;;;19.33;11.65;;;32.80;94.20;;;;;;4209042;28;20391;-66
2022/08/13 09:53:17;;;;;;;21.85;10.57;;;32.90;94.00;;;;;;4209597;28;20495;-66
2022/08/13 09:55:24;;;;;;;17.58;9.27;;;32.80;94.00;;;;;;4209243;28;20052;-66
2022/08/13 09:57:51;;;;;;;12.40;5.80;;;32.80;94.00;;;;;;4208652;28;20716;-66
2022/08/13 10:00:00;;;;;;;10.05;4.15;;;32.80;94.10;;;;;;4208213;28;20056;-66
2022/08/13 10:02:14;;;;;;;8.55;3.75;;;32.80;93.80;;;;;;4209239;28;20076;-67
2022/08/13 10:04:20;;;;;;;9.43;3.63;;;32.70;94.00;;;;;;4207786;28;20044;-67
2022/08/13 10:06:28;;;;;;;10.82;3.45;;;32.70;94.10;;;;;;4209703;28;20040;-66
2022/08/13 10:08:34;;;;;;;7.38;3.60;;;32.70;94.10;;;;;;4208217;28;20040;-66
2022/08/13 10:10:47;;;;;;;9.85;4.63;;;32.70;94.00;;;;;;4208221;28;20093;-65
2022/08/13 10:12:53;;;;;;;9.82;5.00;;;32.60;94.30;;;;;;4212638;28;20040;-66
2022/08/13 10:14:59;;;;;;;11.77;4.28;;;32.60;94.30;;;;;;4210350;28;20051;-66
2022/08/13 10:17:04;;;;;;;8.98;4.05;;;32.50;94.30;;;;;;4212404;28;20188;-66
2022/08/13 10:19:11;;;;;;;9.10;3.75;;;32.50;94.30;;;;;;4211090;28;20048;-65
2022/08/13 10:21:17;;;;;;;11.13;4.10;;;32.40;94.50;;;;;;4212259;28;20445;-66
2022/08/13 10:23:23;;;;;;;20.58;4.18;;;32.40;94.50;;;;;;4212060;28;20391;-66
2022/08/13 10:25:46;;;;;;;17.92;3.63;;;32.40;94.70;;;;;;4211694;28;20119;-65
2022/08/13 10:27:57;;;;;;;15.02;3.60;;;32.30;94.90;;;;;;4211193;28;20141;-66
2022/08/13 10:30:06;;;;;;;17.92;3.30;;;32.30;95.00;;;;;;4212565;28;20036;-66
2022/08/13 10:32:32;;;;;;;9.20;2.85;;;32.30;95.00;;;;;;4195801;28;20059;-66
2022/08/13 10:34:43;;;;;;;11.05;3.03;;;32.20;95.20;;;;;;4194404;28;20091;-65
2022/08/13 10:37:03;;;;;;;11.80;3.58;;;32.20;95.30;;;;;;4193388;28;20045;-66
2022/08/13 10:39:15;;;;;;;14.63;3.95;;;32.10;95.40;;;;;;4192814;28;20040;-65
2022/08/13 10:41:19;;;;;;;11.88;3.47;;;32.00;95.70;;;;;;4178278;28;20095;-65
2022/08/13 10:43:26;;;;;;;10.88;3.30;;;32.00;95.80;;;;;;4196410;28;20722;-65
2022/08/13 10:45:50;;;;;;;7.25;3.70;;;32.00;95.50;;;;;;4197557;28;20044;-65
2022/08/13 10:47:55;;;;;;;11.75;4.07;;;32.00;96.00;;;;;;4193028;28;20049;-66
2022/08/13 10:50:04;;;;;;;11.70;4.00;;;31.90;95.80;;;;;;4180582;28;20049;-64
2022/08/13 10:52:08;;;;;;;13.32;3.83;;;32.00;95.90;;;;;;4212395;28;20047;-65
2022/08/13 10:54:13;;;;;;;10.95;3.53;;;32.00;95.70;;;;;;4211802;28;20048;-66
2022/08/13 10:56:33;;;;;;;12.48;3.50;;;32.00;95.70;;;;;;4211830;28;20035;-66
2022/08/13 10:58:39;;;;;;;7.30;3.25;;;32.00;95.70;;;;;;4212253;28;20154;-66
2022/08/13 11:00:53;;;;;;;8.98;3.20;;;31.90;95.90;;;;;;4211016;28;20048;-67
2022/08/13 11:02:59;;;;;;;17.73;3.80;;;31.80;96.10;;;;;;4209814;28;20573;-68
2022/08/13 11:05:11;;;;;;;14.18;4.32;;;31.80;96.10;;;;;;4211755;28;20561;-66
2022/08/13 11:07:20;;;;;;;11.05;3.85;;;31.80;96.20;;;;;;4208714;28;20807;-66
2022/08/13 11:09:27;;;;;;;10.63;4.43;;;31.80;96.20;;;;;;4211832;28;20133;-67
2022/08/13 11:11:42;;;;;;;9.75;4.93;;;31.80;96.10;;;;;;4213300;28;20040;-67
2022/08/13 11:13:55;;;;;;;10.80;4.40;;;31.80;96.10;;;;;;4212696;28;20040;-67
2022/08/13 11:16:00;;;;;;;11.25;5.00;;;31.80;96.30;;;;;;4209592;28;20098;-67
2022/08/13 11:18:09;;;;;;;10.68;3.70;;;31.80;96.40;;;;;;4210520;28;20097;-67
2022/08/13 11:20:19;;;;;;;12.52;4.03;;;31.80;96.60;;;;;;4210807;28;20497;-67
2022/08/13 11:22:29;;;;;;;10.93;4.05;;;31.80;96.70;;;;;;4210317;28;20542;-67
2022/08/13 11:24:35;;;;;;;12.52;4.07;;;31.80;97.00;;;;;;4208045;28;20565;-68
2022/08/13 11:26:41;;;;;;;15.85;3.75;;;31.70;97.20;;;;;;4210327;28;20036;-67
2022/08/13 11:28:48;;;;;;;13.43;3.10;;;31.70;97.30;;;;;;4211751;28;20048;-67
2022/08/13 11:30:55;;;;;;;13.25;3.75;;;31.70;97.50;;;;;;4204449;28;20494;-68
2022/08/13 11:33:00;;;;;;;9.93;3.58;;;31.60;97.50;;;;;;4203089;28;20146;-69
2022/08/13 11:35:11;;;;;;;8.95;3.08;;;31.60;97.40;;;;;;4205286;28;20082;-68
2022/08/13 11:37:17;;;;;;;8.50;4.05;;;31.70;97.40;;;;;;4206320;28;20155;-68
2022/08/13 11:39:25;;;;;;;9.90;5.40;;;31.60;96.80;;;;;;4206213;28;20109;-68